Time;durP1;ratioP1;P1;durP2;ratioP2;P2;SDS_P1;SDS_P2;PMS_P1;PMS_P2;Temp;Humidity;BMP_temperature;BMP_pressure;BME280_temperature;BME280_humidity;BME280_pressure;Samples;Min_cycle;Max_cycle;Signal;HPM_P1;HPM_P2
2022/09/12 00:03:59;;;;;;;;;;;;;;;;;;;;;
2022/09/12 00:10:18;;;;;;;1.05;0.52;;;20.10;99.90;;;;;;4813221;29;20038;-79
2022/09/12 00:13:30;;;;;;;1.15;0.60;;;20.20;99.90;;;;;;4847491;29;20208;-80
2022/09/12 00:16:33;;;;;;;;;;;;;;;;;;;;;
2022/09/12 00:19:31;;;;;;;;;;;;;;;;;;;;;
2022/09/12 00:22:34;;;;;;;;;;;;;;;;;;;;;
2022/09/12 00:26:07;;;;;;;;;;;;;;;;;;;;;
2022/09/12 00:35:37;;;;;;;2.72;0.82;;;20.10;99.90;;;;;;4934652;28;20159;-79
2022/09/12 00:58:43;;;;;;;0.93;0.70;;;19.80;99.90;;;;;;4796984;29;20042;-79
2022/09/12 01:08:52;;;;;;;1.95;0.90;;;19.60;99.90;;;;;;4802443;29;20905;-79
2022/09/12 01:31:16;;;;;;;1.30;0.77;;;19.60;99.90;;;;;;4828694;29;20160;-79
2022/09/12 01:44:48;;;;;;;;;;;;;;;;;;;;;
2022/09/12 02:01:49;;;;;;;;;;;;;;;;;;;;;
2022/09/12 02:08:17;;;;;;;3.65;0.50;;;19.60;99.90;;;;;;4847321;29;20423;-80
2022/09/12 02:11:46;;;;;;;0.30;0.30;;;19.60;99.90;;;;;;4861663;29;20112;-79
2022/09/12 02:18:56;;;;;;;4.50;0.70;;;19.60;99.90;;;;;;4920110;29;20039;-79
2022/09/12 02:31:10;;;;;;;0.40;0.40;;;19.90;99.90;;;;;;5000413;28;20077;-79
2022/09/12 02:47:11;;;;;;;2.53;0.52;;;19.90;99.90;;;;;;4850434;29;20045;-79
2022/09/12 02:50:23;;;;;;;2.67;0.57;;;19.90;99.90;;;;;;4861687;29;20061;-79
2022/09/12 02:53:20;;;;;;;2.33;0.63;;;19.90;99.90;;;;;;4844326;29;20032;-80
2022/09/12 02:59:52;;;;;;;;;;;;;;;;;;;;;
2022/09/12 03:06:37;;;;;;;1.58;0.70;;;19.90;99.90;;;;;;4771447;30;20392;-79
2022/09/12 03:09:45;;;;;;;3.30;0.40;;;19.90;99.90;;;;;;4740401;30;20500;-79
2022/09/12 03:20:30;;;;;;;3.72;0.65;;;19.80;99.90;;;;;;4898842;29;20452;-79
2022/09/12 03:33:14;;;;;;;0.40;0.40;;;19.70;99.90;;;;;;4896887;29;20053;-79
2022/09/12 04:31:54;;;;;;;;;;;19.80;99.90;;;;;;4838023;29;19976;-79
2022/09/12 04:59:13;;;;;;;;;;;19.40;99.90;;;;;;4824831;29;19961;-79
2022/09/12 05:29:41;;;;;;;;;;;19.50;99.90;;;;;;4754841;30;20452;-72
2022/09/12 05:32:50;;;;;;;;;;;19.70;99.90;;;;;;4787588;30;19921;-73
2022/09/12 05:44:49;;;;;;;;;;;20.00;99.90;;;;;;4892412;29;19985;-73
2022/09/12 05:47:16;;;;;;;;;;;20.10;99.90;;;;;;4932139;29;19910;-74
2022/09/12 05:49:44;;;;;;;;;;;20.10;99.90;;;;;;4985061;28;19920;-74
2022/09/12 05:58:37;;;;;;;;;;;20.00;99.90;;;;;;4933754;29;19999;-72
2022/09/12 06:01:13;;;;;;;;;;;20.10;99.90;;;;;;4931336;29;20396;-72
2022/09/12 06:04:05;;;;;;;;;;;;;;;;;;;;;
2022/09/12 06:09:35;;;;;;;;;;;20.20;99.90;;;;;;4967207;28;19915;-73
2022/09/12 06:15:04;;;;;;;;;;;20.10;99.90;;;;;;4991937;28;19965;-74
2022/09/12 06:17:30;;;;;;;;;;;20.20;99.90;;;;;;4992931;28;20279;-71
2022/09/12 06:20:05;;;;;;;;;;;20.10;99.90;;;;;;4985245;28;19913;-73
2022/09/12 06:22:31;;;;;;;;;;;20.20;99.90;;;;;;4993149;28;19934;-73
2022/09/12 06:24:57;;;;;;;;;;;20.30;99.90;;;;;;4987502;28;19918;-75
2022/09/12 06:27:22;;;;;;;;;;;20.50;99.90;;;;;;4993715;28;19941;-73
2022/09/12 06:29:48;;;;;;;;;;;20.50;99.90;;;;;;4991524;28;19929;-74
2022/09/12 06:32:24;;;;;;;;;;;;;;;;;;;;;
2022/09/12 06:38:26;;;;;;;;;;;20.80;99.90;;;;;;4940431;28;19917;-74
2022/09/12 06:40:57;;;;;;;;;;;20.80;99.90;;;;;;4921042;29;19929;-75
2022/09/12 06:43:23;;;;;;;;;;;20.80;99.90;;;;;;4899572;29;19917;-75
2022/09/12 06:45:52;;;;;;;;;;;20.80;99.90;;;;;;4921176;29;19915;-73
2022/09/12 06:48:17;;;;;;;;;;;20.90;99.90;;;;;;4934921;28;19976;-74
2022/09/12 06:50:53;;;;;;;;;;;20.90;99.90;;;;;;4981852;28;20189;-74
2022/09/12 06:53:28;;;;;;;;;;;20.90;99.90;;;;;;4981634;28;19910;-74
2022/09/12 06:56:02;;;;;;;;;;;21.00;99.90;;;;;;4990092;28;19909;-74
2022/09/12 06:58:53;;;;;;;;;;;21.20;99.90;;;;;;4994157;28;20264;-74
2022/09/12 07:01:29;;;;;;;;;;;21.20;99.90;;;;;;4989104;28;19917;-74
2022/09/12 07:03:56;;;;;;;;;;;21.30;99.90;;;;;;4994587;28;20008;-75
2022/09/12 07:06:30;;;;;;;;;;;21.40;99.90;;;;;;4994899;28;19905;-74
2022/09/12 07:09:00;;;;;;;;;;;21.40;99.90;;;;;;4994153;28;19914;-74
2022/09/12 07:11:46;;;;;;;;;;;21.30;99.90;;;;;;5004197;28;20051;-75
2022/09/12 07:14:28;;;;;;;;;;;21.20;99.90;;;;;;4992411;28;19910;-74
2022/09/12 07:16:56;;;;;;;;;;;21.30;99.90;;;;;;4993425;28;19910;-74
2022/09/12 07:19:23;;;;;;;;;;;21.50;99.90;;;;;;4991855;28;19922;-74
2022/09/12 07:21:49;;;;;;;;;;;21.60;99.90;;;;;;5002304;28;19917;-74
2022/09/12 07:24:15;;;;;;;;;;;21.70;99.90;;;;;;4987343;28;19909;-71
2022/09/12 07:26:41;;;;;;;;;;;21.90;99.90;;;;;;4995518;28;19913;-68
2022/09/12 07:29:09;;;;;;;;;;;22.20;99.90;;;;;;4993933;28;20282;-72
2022/09/12 07:31:35;;;;;;;;;;;22.70;99.90;;;;;;4991818;28;19910;-72
2022/09/12 07:34:30;;;;;;;;;;;23.00;99.90;;;;;;4993428;28;19913;-71
2022/09/12 07:37:04;;;;;;;;;;;23.00;99.90;;;;;;4999685;28;20371;-71
2022/09/12 07:39:44;;;;;;;;;;;23.30;99.90;;;;;;5010149;28;19949;-70
2022/09/12 07:42:25;;;;;;;;;;;23.70;99.90;;;;;;4993399;28;19963;-70
2022/09/12 07:44:52;;;;;;;;;;;23.70;99.90;;;;;;4995651;28;20001;-70
2022/09/12 07:47:44;;;;;;;;;;;23.90;99.90;;;;;;4994739;28;19914;-72
2022/09/12 07:50:10;;;;;;;;;;;24.00;99.90;;;;;;4982379;28;19918;-73
2022/09/12 07:55:51;;;;;;;;;;;23.40;99.90;;;;;;4989419;28;20029;-73
2022/09/12 07:58:17;;;;;;;;;;;23.20;99.90;;;;;;4994022;28;20010;-73
2022/09/12 08:13:23;;;;;;;;;;;23.30;99.90;;;;;;4890379;29;19916;-75
2022/09/12 08:19:10;;;;;;;;;;;23.50;99.90;;;;;;4931635;29;19934;-72
2022/09/12 08:21:48;;;;;;;;;;;23.50;99.90;;;;;;4916398;29;19911;-73
2022/09/12 08:26:58;;;;;;;;;;;23.60;99.90;;;;;;4925941;29;20367;-71
2022/09/12 08:32:27;;;;;;;;;;;23.80;99.90;;;;;;4916393;29;20380;-71
2022/09/12 08:47:42;;;;;;;;;;;24.20;99.90;;;;;;5017201;28;19967;-71
2022/09/12 08:50:23;;;;;;;;;;;24.50;99.90;;;;;;5001443;28;20389;-71
2022/09/12 08:52:57;;;;;;;;;;;24.60;99.90;;;;;;4994391;28;19909;-71
2022/09/12 08:55:34;;;;;;;;;;;24.60;99.90;;;;;;4996741;28;19909;-70
2022/09/12 08:58:01;;;;;;;;;;;24.40;99.90;;;;;;4976134;28;19917;-71
2022/09/12 09:01:03;;;;;;;;;;;;;;;;;;;;;
2022/09/12 09:03:55;;;;;;;;;;;24.20;99.90;;;;;;4985877;28;19915;-71
2022/09/12 09:06:38;;;;;;;;;;;24.10;99.90;;;;;;5016444;28;19905;-72
2022/09/12 09:09:10;;;;;;;;;;;24.00;99.90;;;;;;5015786;28;20268;-69
2022/09/12 09:11:39;;;;;;;;;;;24.10;99.90;;;;;;4985005;28;19910;-70
2022/09/12 09:14:46;;;;;;;;;;;23.90;99.90;;;;;;4996531;28;20024;-70
2022/09/12 09:20:27;;;;;;;;;;;23.80;99.90;;;;;;4910968;29;20372;-70
2022/09/12 09:23:17;;;;;;;;;;;23.80;99.90;;;;;;4986283;28;19910;-70
2022/09/12 09:26:02;;;;;;;;;;;23.90;99.90;;;;;;5001971;28;19909;-70
2022/09/12 09:29:01;;;;;;;;;;;23.90;99.90;;;;;;4977783;28;19906;-70
2022/09/12 09:31:32;;;;;;;;;;;23.90;99.90;;;;;;4977605;28;20246;-69
2022/09/12 09:33:58;;;;;;;;;;;23.90;99.90;;;;;;5009432;28;20004;-70
2022/09/12 09:36:43;;;;;;;;;;;23.70;99.90;;;;;;4995073;28;19916;-70
2022/09/12 09:39:31;;;;;;;;;;;23.80;99.90;;;;;;4995149;28;20000;-69
2022/09/12 09:45:13;;;;;;;;;;;23.50;99.90;;;;;;4973152;28;19909;-70
2022/09/12 09:47:39;;;;;;;;;;;23.50;99.90;;;;;;5003145;28;19913;-70
2022/09/12 09:50:05;;;;;;;;;;;23.60;99.90;;;;;;5009753;28;19910;-69
2022/09/12 09:52:48;;;;;;;;;;;23.60;99.90;;;;;;5002180;28;19920;-69
2022/09/12 09:55:18;;;;;;;;;;;23.70;99.90;;;;;;5002794;28;19914;-69
2022/09/12 09:57:45;;;;;;;;;;;23.90;99.90;;;;;;5008889;28;19912;-70
2022/09/12 10:00:26;;;;;;;;;;;23.90;99.90;;;;;;4998815;28;19909;-70
2022/09/12 10:02:58;;;;;;;;;;;23.90;99.90;;;;;;4994021;28;20367;-69
2022/09/12 10:05:23;;;;;;;;;;;23.90;99.90;;;;;;4997875;28;20345;-69
2022/09/12 10:07:50;;;;;;;;;;;24.00;99.90;;;;;;4997810;28;19948;-70
2022/09/12 10:10:17;;;;;;;;;;;24.00;99.90;;;;;;4995941;28;19909;-69
2022/09/12 10:12:43;;;;;;;;;;;24.00;99.90;;;;;;4994564;28;19918;-69
2022/09/12 10:15:17;;;;;;;;;;;24.00;99.90;;;;;;4994407;28;19913;-70
2022/09/12 10:17:45;;;;;;;;;;;24.00;99.90;;;;;;5000955;28;19916;-69
2022/09/12 10:20:29;;;;;;;;;;;24.00;99.90;;;;;;5000314;28;20008;-70
2022/09/12 10:22:54;;;;;;;;;;;24.00;99.90;;;;;;4993578;28;20380;-70
2022/09/12 10:25:22;;;;;;;;;;;24.20;99.90;;;;;;4994802;28;19913;-69
2022/09/12 10:27:53;;;;;;;;;;;24.40;99.90;;;;;;4995490;28;20278;-69
2022/09/12 10:30:19;;;;;;;;;;;24.40;99.90;;;;;;5001223;28;19971;-69
2022/09/12 10:32:47;;;;;;;;;;;24.30;99.90;;;;;;4997511;28;20315;-70
2022/09/12 10:35:16;;;;;;;;;;;24.30;99.90;;;;;;4994862;28;20145;-70
2022/09/12 10:37:51;;;;;;;;;;;24.40;99.90;;;;;;5000233;28;19933;-70
2022/09/12 10:40:27;;;;;;;;;;;24.50;99.90;;;;;;4994487;28;21390;-75
2022/09/12 10:43:00;;;;;;;;;;;24.60;99.90;;;;;;4976360;28;19917;-74
2022/09/12 10:45:30;;;;;;;;;;;24.60;99.90;;;;;;5008137;28;20163;-74
2022/09/12 10:47:58;;;;;;;;;;;24.60;99.90;;;;;;4994493;28;19973;-74
2022/09/12 10:50:25;;;;;;;;;;;24.60;99.90;;;;;;4994703;28;19917;-73
2022/09/12 10:52:54;;;;;;;;;;;24.70;99.90;;;;;;4993686;28;20411;-75
2022/09/12 10:55:24;;;;;;;;;;;24.60;99.90;;;;;;4994184;28;19906;-74
2022/09/12 10:57:56;;;;;;;;;;;24.70;99.90;;;;;;4994723;28;20016;-74
2022/09/12 11:00:26;;;;;;;;;;;24.70;99.90;;;;;;4995088;28;19909;-74
2022/09/12 11:02:57;;;;;;;;;;;24.70;99.90;;;;;;4993297;28;19913;-74
2022/09/12 11:05:23;;;;;;;;;;;24.80;99.90;;;;;;4988868;28;19905;-74
2022/09/12 11:08:24;;;;;;;;;;;24.90;99.90;;;;;;4994877;28;20382;-74
2022/09/12 11:10:55;;;;;;;;;;;24.80;99.90;;;;;;4963454;28;19949;-73
2022/09/12 11:14:00;;;;;;;;;;;24.80;99.90;;;;;;4985549;28;19909;-74
2022/09/12 11:16:36;;;;;;;;;;;24.80;99.90;;;;;;4994343;28;19905;-74
2022/09/12 11:19:17;;;;;;;;;;;24.80;99.90;;;;;;4999055;28;19909;-74
2022/09/12 11:21:49;;;;;;;;;;;24.70;99.90;;;;;;4988086;28;19933;-75
2022/09/12 11:24:24;;;;;;;;;;;24.60;99.90;;;;;;4986830;28;19909;-74
2022/09/12 11:26:56;;;;;;;;;;;24.60;99.90;;;;;;4994598;28;19906;-74
2022/09/12 11:29:41;;;;;;;;;;;24.60;99.90;;;;;;4994632;28;20004;-74
2022/09/12 11:32:11;;;;;;;;;;;24.80;99.90;;;;;;4999024;28;19917;-73
2022/09/12 11:34:58;;;;;;;;;;;24.80;99.90;;;;;;5005142;28;19932;-74
2022/09/12 11:37:32;;;;;;;;;;;24.80;99.90;;;;;;4982303;28;19909;-73
2022/09/12 11:40:01;;;;;;;;;;;24.80;99.90;;;;;;5000327;28;19909;-73
2022/09/12 11:42:34;;;;;;;;;;;24.70;99.90;;;;;;5005423;28;20283;-73
2022/09/12 11:45:23;;;;;;;;;;;24.70;99.90;;;;;;4998439;28;19918;-76
2022/09/12 11:47:51;;;;;;;;;;;24.80;99.90;;;;;;5008715;28;20054;-73
2022/09/12 11:50:22;;;;;;;;;;;24.90;99.90;;;;;;5003711;28;19916;-72
2022/09/12 11:52:49;;;;;;;;;;;24.90;99.90;;;;;;4982740;28;19910;-73
2022/09/12 11:55:16;;;;;;;;;;;25.00;99.90;;;;;;4999540;28;19985;-73
2022/09/12 11:57:42;;;;;;;;;;;24.90;99.90;;;;;;5008601;28;19936;-73
2022/09/12 12:00:21;;;;;;;;;;;24.80;99.90;;;;;;5017033;28;20375;-73
2022/09/12 12:03:06;;;;;;;;;;;24.80;99.90;;;;;;4995484;28;19921;-73
2022/09/12 12:05:53;;;;;;;;;;;24.80;99.90;;;;;;5014475;28;19916;-73
2022/09/12 12:08:31;;;;;;;;;;;24.90;99.90;;;;;;5005596;28;20019;-73
2022/09/12 12:11:01;;;;;;;;;;;25.00;99.90;;;;;;4996143;28;19964;-73
2022/09/12 12:13:37;;;;;;;;;;;25.10;99.90;;;;;;5003010;28;19956;-73
2022/09/12 12:16:08;;;;;;;;;;;25.20;99.90;;;;;;4998405;28;19933;-74
2022/09/12 12:19:15;;;;;;;;;;;25.20;99.90;;;;;;5017888;28;19905;-74
2022/09/12 12:21:59;;;;;;;;;;;25.20;99.90;;;;;;4947641;28;19921;-76
2022/09/12 12:24:27;;;;;;;;;;;25.00;99.90;;;;;;4936049;29;19911;-73
2022/09/12 12:27:35;;;;;;;;;;;25.00;99.90;;;;;;4984764;28;19913;-75
2022/09/12 12:30:23;;;;;;;;;;;25.00;99.90;;;;;;5005446;28;20298;-74
2022/09/12 12:32:48;;;;;;;;;;;24.80;99.90;;;;;;4998202;28;19910;-74
2022/09/12 12:35:32;;;;;;;;;;;24.90;99.90;;;;;;4995177;28;20009;-75
2022/09/12 12:38:07;;;;;;;;;;;25.00;99.90;;;;;;4995863;28;19910;-74
2022/09/12 12:40:33;;;;;;;;;;;25.00;99.90;;;;;;4996049;28;19917;-75
2022/09/12 12:43:30;;;;;;;;;;;25.10;99.90;;;;;;4995846;28;20241;-71
2022/09/12 12:46:01;;;;;;;;;;;25.20;99.90;;;;;;5004908;28;19935;-75
2022/09/12 12:48:34;;;;;;;;;;;25.40;99.90;;;;;;5009585;28;19921;-75
2022/09/12 12:51:20;;;;;;;;;;;25.40;99.90;;;;;;5004895;28;19909;-75
2022/09/12 12:53:46;;;;;;;;;;;25.50;99.90;;;;;;5001441;28;19910;-75
2022/09/12 12:59:31;;;;;;;;;;;25.50;99.90;;;;;;4930356;29;19990;-76
2022/09/12 13:01:58;;;;;;;;;;;25.60;99.90;;;;;;4989028;28;19910;-74
2022/09/12 13:04:26;;;;;;;;;;;25.60;99.90;;;;;;4989299;28;19962;-73
2022/09/12 13:07:03;;;;;;;;;;;25.60;99.90;;;;;;4997777;28;19934;-73
2022/09/12 13:09:32;;;;;;;;;;;25.60;99.90;;;;;;4979219;28;19929;-73
2022/09/12 13:12:11;;;;;;;;;;;25.50;99.90;;;;;;5010133;28;19913;-72
2022/09/12 13:14:50;;;;;;;;;;;25.50;99.90;;;;;;5004351;28;20294;-73
2022/09/12 13:17:26;;;;;;;;;;;25.30;99.90;;;;;;5003039;28;19917;-74
2022/09/12 13:19:53;;;;;;;;;;;25.30;99.90;;;;;;4989983;28;19909;-73
2022/09/12 13:22:21;;;;;;;;;;;25.40;99.90;;;;;;4998849;28;20387;-73
2022/09/12 13:24:51;;;;;;;;;;;25.50;99.90;;;;;;4978414;28;19910;-73
2022/09/12 13:27:18;;;;;;;;;;;25.50;99.90;;;;;;5002026;28;20295;-73
2022/09/12 13:29:47;;;;;;;;;;;25.50;99.90;;;;;;4994690;28;20824;-73
2022/09/12 13:32:13;;;;;;;;;;;25.50;99.90;;;;;;4992530;28;20269;-74
2022/09/12 13:34:57;;;;;;;;;;;25.30;99.90;;;;;;5000522;28;19917;-73
2022/09/12 13:37:44;;;;;;;;;;;25.30;99.90;;;;;;4990948;28;19964;-73
2022/09/12 13:40:26;;;;;;;;;;;25.30;99.90;;;;;;4974491;28;19918;-73
2022/09/12 13:43:14;;;;;;;;;;;;;;;;;;;;;
2022/09/12 13:45:41;;;;;;;;;;;25.40;99.90;;;;;;4995310;28;19961;-73
2022/09/12 13:48:11;;;;;;;;;;;25.50;99.90;;;;;;4993167;28;19921;-73
2022/09/12 13:50:56;;;;;;;;;;;25.60;99.90;;;;;;4996282;28;19937;-74
2022/09/12 13:53:24;;;;;;;;;;;25.60;99.90;;;;;;4994760;28;19921;-74
2022/09/12 13:55:52;;;;;;;;;;;25.60;99.90;;;;;;4990245;28;19909;-74
2022/09/12 13:58:28;;;;;;;;;;;25.40;99.90;;;;;;4986177;28;19917;-73
2022/09/12 14:01:00;;;;;;;;;;;25.30;99.90;;;;;;4979221;28;19914;-74
2022/09/12 14:06:12;;;;;;;;;;;25.50;99.90;;;;;;4993786;28;20275;-74
2022/09/12 14:08:40;;;;;;;;;;;25.40;99.90;;;;;;4995104;28;19933;-74
2022/09/12 14:11:09;;;;;;;;;;;25.40;99.90;;;;;;4995552;28;19917;-73
2022/09/12 14:13:37;;;;;;;;;;;25.40;99.90;;;;;;4974188;28;19917;-74
2022/09/12 14:16:07;;;;;;;;;;;25.40;99.90;;;;;;4994990;28;19913;-73
2022/09/12 14:18:37;;;;;;;;;;;25.40;99.90;;;;;;4995736;28;20003;-75
2022/09/12 14:21:11;;;;;;;;;;;25.40;99.90;;;;;;4995697;28;19940;-74
2022/09/12 14:23:41;;;;;;;;;;;25.40;99.90;;;;;;4995589;28;19941;-73
2022/09/12 14:26:11;;;;;;;;;;;25.30;99.90;;;;;;4994694;28;19910;-73
2022/09/12 14:28:41;;;;;;;;;;;25.40;99.90;;;;;;4994345;28;19916;-73
2022/09/12 14:31:14;;;;;;;;;;;25.40;99.90;;;;;;4994005;28;20102;-75
2022/09/12 14:33:46;;;;;;;;;;;25.50;99.90;;;;;;4994919;28;19917;-74
2022/09/12 14:36:32;;;;;;;;;;;25.50;99.90;;;;;;4996825;28;19918;-72
2022/09/12 14:39:00;;;;;;;;;;;25.60;99.90;;;;;;4979017;28;19912;-72
2022/09/12 14:41:35;;;;;;;;;;;25.70;99.90;;;;;;4993992;28;19936;-72
2022/09/12 14:44:06;;;;;;;;;;;25.70;99.90;;;;;;4990525;28;20279;-72
2022/09/12 14:46:34;;;;;;;;;;;25.60;99.90;;;;;;4990546;28;20352;-74
2022/09/12 14:49:20;;;;;;;;;;;25.60;99.90;;;;;;4993791;28;19909;-74
2022/09/12 14:51:56;;;;;;;;;;;25.50;99.90;;;;;;4970299;28;19909;-72
2022/09/12 14:54:28;;;;;;;;;;;25.60;99.90;;;;;;4985716;28;19909;-75
2022/09/12 14:57:08;;;;;;;;;;;25.60;99.90;;;;;;4994911;28;19910;-73
2022/09/12 14:59:33;;;;;;;;;;;25.60;99.90;;;;;;4994928;28;19953;-73
2022/09/12 15:02:15;;;;;;;;;;;25.50;99.90;;;;;;4994699;28;19917;-73
2022/09/12 15:04:46;;;;;;;;;;;25.40;99.90;;;;;;5000130;28;20335;-72
2022/09/12 15:07:21;;;;;;;;;;;25.40;99.90;;;;;;4993329;28;19953;-77
2022/09/12 15:09:47;;;;;;;;;;;25.40;99.90;;;;;;4994280;28;19959;-73
2022/09/12 15:12:13;;;;;;;;;;;25.40;99.90;;;;;;4992420;28;20419;-72
2022/09/12 15:14:39;;;;;;;;;;;25.40;99.90;;;;;;4993617;28;19984;-73
2022/09/12 15:17:05;;;;;;;;;;;25.40;99.90;;;;;;4993237;28;24753;-73
2022/09/12 15:19:33;;;;;;;;;;;25.30;99.90;;;;;;4992694;28;19914;-74
2022/09/12 15:21:59;;;;;;;;;;;25.30;99.90;;;;;;4992778;28;24608;-73
2022/09/12 15:24:25;;;;;;;;;;;25.40;99.90;;;;;;4993294;28;20279;-73
2022/09/12 15:26:52;;;;;;;;;;;25.40;99.90;;;;;;4993306;28;20411;-73
2022/09/12 15:29:18;;;;;;;;;;;25.40;99.90;;;;;;4976267;28;19937;-73
2022/09/12 15:31:45;;;;;;;;;;;25.30;99.90;;;;;;4993885;28;20020;-74
2022/09/12 15:34:11;;;;;;;;;;;25.20;99.90;;;;;;4993458;28;19913;-73
2022/09/12 15:36:47;;;;;;;;;;;25.30;99.90;;;;;;4988894;28;19992;-73
2022/09/12 15:39:41;;;;;;;;;;;;;;;;;;;;;
2022/09/12 15:42:31;;;;;;;;;;;25.30;99.90;;;;;;4994015;28;19940;-73
2022/09/12 15:45:01;;;;;;;;;;;25.30;99.90;;;;;;4990874;28;19941;-73
2022/09/12 15:47:45;;;;;;;;;;;25.30;99.90;;;;;;4993231;28;19937;-74
2022/09/12 15:50:17;;;;;;;;;;;25.10;99.90;;;;;;4992562;28;19917;-74
2022/09/12 15:52:43;;;;;;;;;;;25.20;99.90;;;;;;4993772;28;19934;-73
2022/09/12 16:04:56;;;;;;;;;;;25.10;99.90;;;;;;4895890;29;19948;-73
2022/09/12 16:10:34;;;;;;;;;;;25.00;99.90;;;;;;4877140;29;19911;-73
2022/09/12 16:13:25;;;;;;;;;;;25.10;99.90;;;;;;4885913;29;19912;-73
2022/09/12 16:22:13;;;;;;;;;;;25.00;99.90;;;;;;4986518;28;20295;-73
2022/09/12 16:25:17;;;;;;;;;;;24.90;99.90;;;;;;4962581;28;19959;-74
2022/09/12 16:30:56;;;;;;;;;;;24.80;99.90;;;;;;4952779;29;19937;-73
2022/09/12 16:33:22;;;;;;;;;;;24.60;99.90;;;;;;4954371;28;20139;-73
2022/09/12 16:35:53;;;;;;;;;;;24.60;99.90;;;;;;4969485;28;19954;-72
2022/09/12 16:38:20;;;;;;;;;;;24.50;99.90;;;;;;4981994;28;19979;-73
2022/09/12 16:43:51;;;;;;;;;;;24.40;99.90;;;;;;4990811;28;19910;-72
2022/09/12 16:46:21;;;;;;;;;;;24.20;99.90;;;;;;5001359;28;20636;-72
2022/09/12 16:48:48;;;;;;;;;;;24.10;99.90;;;;;;4994225;28;20423;-73
2022/09/12 16:51:17;;;;;;;;;;;24.00;99.90;;;;;;4996814;28;19914;-73
2022/09/12 16:59:45;;;;;;;;;;;23.90;99.90;;;;;;4967562;28;19914;-76
2022/09/12 17:02:33;;;;;;;;;;;23.70;99.90;;;;;;5005477;28;20024;-74
2022/09/12 17:04:58;;;;;;;;;;;23.70;99.90;;;;;;4988707;28;20283;-74
2022/09/12 17:07:24;;;;;;;;;;;23.50;99.90;;;;;;4996619;28;19933;-75
2022/09/12 17:10:10;;;;;;;;;;;23.50;99.90;;;;;;4996222;28;20001;-74
2022/09/12 17:13:17;;;;;;;;;;;23.40;99.90;;;;;;4997424;28;20271;-74
2022/09/12 17:19:11;;;;;;;;;;;23.30;99.90;;;;;;4990080;28;19932;-74
2022/09/12 17:24:49;;;;;;;;;;;23.10;99.90;;;;;;4994437;28;20335;-75
2022/09/12 17:27:17;;;;;;;;;;;23.00;99.90;;;;;;4995422;28;19917;-74
2022/09/12 17:30:01;;;;;;;;;;;22.90;99.90;;;;;;5004099;28;20441;-74
2022/09/12 17:32:27;;;;;;;;;;;22.80;99.90;;;;;;4997309;28;19905;-74
2022/09/12 17:34:54;;;;;;;;;;;22.70;99.90;;;;;;4996117;28;19909;-74
2022/09/12 17:40:06;;;;;;;;;;;22.70;99.90;;;;;;4980439;28;20338;-74
2022/09/12 17:42:32;;;;;;;;;;;22.50;99.90;;;;;;5001451;28;20221;-74
2022/09/12 17:45:07;;;;;;;;;;;22.50;99.90;;;;;;5000695;28;19917;-74
2022/09/12 17:50:44;;;;;;;;;;;22.30;99.90;;;;;;4972112;28;19917;-74
2022/09/12 17:53:12;;;;;;;;;;;22.30;99.90;;;;;;5005898;28;19924;-74
2022/09/12 17:55:39;;;;;;;;;;;22.20;99.90;;;;;;4994667;28;20354;-74
2022/09/12 17:58:14;;;;;;;;;;;22.10;99.90;;;;;;5003857;28;19932;-74
2022/09/12 18:03:24;;;;;;;;;;;21.90;99.90;;;;;;4994408;28;19969;-74
2022/09/12 18:05:51;;;;;;;;;;;21.90;99.90;;;;;;4998930;28;20517;-74
2022/09/12 18:08:36;;;;;;;;;;;21.80;99.90;;;;;;5002211;28;19909;-74
2022/09/12 18:11:04;;;;;;;;;;;21.80;99.90;;;;;;4994641;28;19910;-74
2022/09/12 18:13:55;;;;;;;;;;;21.80;99.90;;;;;;4994720;28;19925;-74
2022/09/12 18:16:23;;;;;;;;;;;21.90;99.90;;;;;;4990875;28;19916;-74
2022/09/12 18:25:21;;;;;;;;;;;22.10;99.90;;;;;;4993750;28;19909;-79
2022/09/12 18:28:00;;;;;;;;;;;;;;;;;;;;;
2022/09/12 18:33:51;;;;;;;;;;;22.00;99.90;;;;;;4937556;29;19918;-79
2022/09/12 18:36:21;;;;;;;;;;;21.90;99.90;;;;;;4934994;29;20005;-79
2022/09/12 18:38:49;;;;;;;;;;;21.80;99.90;;;;;;4936568;29;20361;-81
2022/09/12 18:41:22;;;;;;;;;;;21.80;99.90;;;;;;4929700;29;20380;-79
2022/09/12 18:44:11;;;;;;;;;;;21.80;99.90;;;;;;4940159;28;19927;-79
2022/09/12 18:46:37;;;;;;;;;;;21.80;99.90;;;;;;4981027;28;19953;-79
2022/09/12 18:49:08;;;;;;;;;;;21.80;99.90;;;;;;4989881;28;20393;-78
2022/09/12 19:00:46;;;;;;;;;;;;;;;;;;;;;
2022/09/12 19:03:18;;;;;;;;;;;21.40;99.90;;;;;;4992304;28;19920;-79
2022/09/12 19:05:44;;;;;;;;;;;21.20;99.90;;;;;;4992620;28;19917;-79
2022/09/12 19:08:23;;;;;;;;;;;21.20;99.90;;;;;;4994866;28;20407;-79
2022/09/12 19:10:58;;;;;;;;;;;21.20;99.90;;;;;;5002064;28;20405;-79
2022/09/12 19:38:35;;;;;;;;;;;20.90;99.90;;;;;;4918301;29;20372;-78
2022/09/12 19:44:39;;;;;;;;;;;20.90;99.90;;;;;;4935374;29;19949;-79
2022/09/12 20:22:03;;;;;;;;;;;20.30;99.90;;;;;;4856879;29;20495;-79
2022/09/12 20:24:36;;;;;;;;;;;20.40;99.90;;;;;;4879889;29;19956;-78
2022/09/12 20:30:36;;;;;;;;;;;;;;;;;;;;;
2022/09/12 20:39:53;;;;;;;;;;;20.40;99.90;;;;;;4873400;29;19978;-78
2022/09/12 20:42:39;;;;;;;;;;;20.20;99.90;;;;;;4919538;29;20003;-80
2022/09/12 20:45:24;;;;;;;;;;;20.30;99.90;;;;;;4942676;29;19911;-78
2022/09/12 20:48:24;;;;;;;;;;;20.30;99.90;;;;;;4927064;29;19916;-78
2022/09/12 21:06:19;;;;;;;;;;;19.90;99.90;;;;;;4881274;29;19939;-78
2022/09/12 21:12:30;;;;;;;;;;;19.60;99.90;;;;;;4899265;29;19911;-79
2022/09/12 21:15:24;;;;;;;;;;;19.50;99.90;;;;;;4904936;29;19907;-78
2022/09/12 21:17:50;;;;;;;;;;;19.50;99.90;;;;;;4988999;28;19929;-78
2022/09/12 21:20:39;;;;;;;;;;;19.50;99.90;;;;;;4999143;28;19909;-78
2022/09/12 21:23:05;;;;;;;;;;;19.50;99.90;;;;;;4976181;28;20367;-78
2022/09/12 21:25:31;;;;;;;;;;;19.60;99.90;;;;;;5001828;28;19906;-78
2022/09/12 21:27:57;;;;;;;;;;;19.60;99.90;;;;;;5003143;28;19913;-78
2022/09/12 21:30:23;;;;;;;;;;;19.70;99.90;;;;;;5002302;28;19941;-78
2022/09/12 21:32:49;;;;;;;;;;;19.70;99.90;;;;;;5000566;28;20303;-78
2022/09/12 21:35:14;;;;;;;;;;;19.70;99.90;;;;;;4985027;28;19914;-78
2022/09/12 21:37:40;;;;;;;;;;;19.70;99.90;;;;;;5000964;28;20263;-79
2022/09/12 21:40:06;;;;;;;;;;;19.70;99.90;;;;;;4987691;28;19914;-78
2022/09/12 21:42:32;;;;;;;;;;;19.70;99.90;;;;;;4977429;28;19910;-78
2022/09/12 21:44:58;;;;;;;;;;;19.70;99.90;;;;;;4976037;28;19910;-78
2022/09/12 21:47:23;;;;;;;;;;;19.70;99.90;;;;;;4992699;28;19917;-79
2022/09/12 21:49:49;;;;;;;;;;;19.80;99.90;;;;;;4992820;28;19909;-79
2022/09/12 21:52:15;;;;;;;;;;;19.80;99.90;;;;;;4994142;28;20363;-79
2022/09/12 21:54:40;;;;;;;;;;;19.80;99.90;;;;;;4998217;28;19910;-78
2022/09/12 21:57:06;;;;;;;;;;;19.80;99.90;;;;;;4994915;28;19914;-78
2022/09/12 21:59:32;;;;;;;;;;;19.80;99.90;;;;;;4978265;28;20245;-80
2022/09/12 22:01:59;;;;;;;;;;;19.70;99.90;;;;;;4996231;28;19910;-78
2022/09/12 22:04:25;;;;;;;;;;;19.70;99.90;;;;;;4978429;28;20609;-79
2022/09/12 22:07:00;;;;;;;;;;;19.70;99.90;;;;;;4995644;28;20383;-78
2022/09/12 22:09:29;;;;;;;;;;;19.70;99.90;;;;;;4992479;28;20418;-78
2022/09/12 22:11:55;;;;;;;;;;;19.60;99.90;;;;;;4991827;28;19913;-78
2022/09/12 22:14:20;;;;;;;;;;;19.60;99.90;;;;;;4992125;28;19981;-78
2022/09/12 22:16:57;;;;;;;;;;;19.50;99.90;;;;;;4991038;28;20283;-78
2022/09/12 22:19:23;;;;;;;;;;;19.60;99.90;;;;;;4984645;28;19914;-79
2022/09/12 22:24:33;;;;;;;;;;;19.50;99.90;;;;;;4990754;28;20041;-79
2022/09/12 22:27:11;;;;;;;;;;;;;;;;;;;;;
2022/09/12 22:29:37;;;;;;;;;;;19.50;99.90;;;;;;4989012;28;19916;-78
2022/09/12 22:32:03;;;;;;;;;;;19.50;99.90;;;;;;4991081;28;20023;-78
2022/09/12 22:34:29;;;;;;;;;;;19.40;99.90;;;;;;4973519;28;19914;-78
2022/09/12 22:37:16;;;;;;;;;;;19.40;99.90;;;;;;4992186;28;19917;-81
2022/09/12 22:40:03;;;;;;;;;;;19.40;99.90;;;;;;4990381;28;19921;-78
2022/09/12 22:42:30;;;;;;;;;;;19.40;99.90;;;;;;4984616;28;19956;-79
2022/09/12 22:44:55;;;;;;;;;;;19.30;99.90;;;;;;4974333;28;19975;-80
2022/09/12 22:47:21;;;;;;;;;;;19.30;99.90;;;;;;4993695;28;19941;-78
2022/09/12 22:49:52;;;;;;;;;;;19.30;99.90;;;;;;4974449;28;19910;-77
2022/09/12 22:52:19;;;;;;;;;;;19.30;99.90;;;;;;4992850;28;19918;-78
2022/09/12 22:54:44;;;;;;;;;;;19.30;99.90;;;;;;4994553;28;19945;-80
2022/09/12 22:57:12;;;;;;;;;;;19.20;99.90;;;;;;4998640;28;19917;-79
2022/09/12 22:59:38;;;;;;;;;;;19.10;99.90;;;;;;4995638;28;19921;-78
2022/09/12 23:02:04;;;;;;;;;;;19.10;99.90;;;;;;4997630;28;20005;-78
2022/09/12 23:04:33;;;;;;;;;;;19.10;99.90;;;;;;4991570;28;19988;-79
2022/09/12 23:06:59;;;;;;;;;;;19.10;99.90;;;;;;4990934;28;19922;-78
2022/09/12 23:09:44;;;;;;;;;;;19.10;99.90;;;;;;4970716;28;19920;-79
2022/09/12 23:12:10;;;;;;;;;;;19.10;99.90;;;;;;4987955;28;19916;-80
2022/09/12 23:14:36;;;;;;;;;;;19.10;99.90;;;;;;4968375;28;19910;-79
2022/09/12 23:17:02;;;;;;;;;;;19.10;99.90;;;;;;4993870;28;19957;-78
2022/09/12 23:19:28;;;;;;;;;;;19.10;99.90;;;;;;4997689;28;19953;-78